Time;durP1;ratioP1;P1;durP2;ratioP2;P2;SDS_P1;SDS_P2;PMS_P1;PMS_P2;Temp;Humidity;BMP_temperature;BMP_pressure;BME280_temperature;BME280_humidity;BME280_pressure;Samples;Min_cycle;Max_cycle;Signal;HPM_P1;HPM_P2
2022/07/18 00:00:26;;;;;;;4.37;3.60;;;;;;;13.43;100.00;101154.63;1741199;81;21074;-89
2022/07/18 00:02:55;;;;;;;5.87;4.05;;;;;;;13.43;100.00;101152.51;1741435;82;21002;-89
2022/07/18 00:05:22;;;;;;;4.25;3.70;;;;;;;13.41;100.00;101150.84;1741215;81;21275;-89
2022/07/18 00:07:50;;;;;;;3.17;2.98;;;;;;;13.39;100.00;101155.34;1741051;82;21536;-89
2022/07/18 00:10:18;;;;;;;3.85;3.50;;;;;;;13.35;100.00;101155.22;1752615;80;21061;-89
2022/07/18 00:12:45;;;;;;;3.98;3.58;;;;;;;13.34;100.00;101152.24;1733947;81;21566;-89
2022/07/18 00:15:12;;;;;;;3.75;3.45;;;;;;;13.32;100.00;101155.94;1724351;82;21037;-89
2022/07/18 00:17:40;;;;;;;3.42;3.12;;;;;;;13.31;100.00;101161.63;1724701;82;21520;-89
2022/07/18 00:20:10;;;;;;;4.08;3.08;;;;;;;13.28;100.00;101158.42;1724307;81;21099;-89
2022/07/18 00:22:39;;;;;;;4.37;3.30;;;;;;;13.21;100.00;101165.44;1724693;82;21460;-89
2022/07/18 00:25:07;;;;;;;3.40;3.10;;;;;;;13.15;100.00;101159.39;1724071;82;21098;-89
2022/07/18 00:27:35;;;;;;;4.37;3.10;;;;;;;13.10;100.00;101165.42;1724236;81;21081;-90
2022/07/18 00:30:04;;;;;;;5.75;3.72;;;;;;;13.06;100.00;101167.94;1724650;81;21539;-89
2022/07/18 00:32:43;;;;;;;;;;;;;;;;;;;;;
2022/07/18 00:35:01;;;;;;;5.12;3.92;;;;;;;13.02;100.00;101164.73;1724249;81;21551;-89
2022/07/18 00:37:29;;;;;;;5.75;3.62;;;;;;;13.01;100.00;101160.94;1724496;81;21038;-89
2022/07/18 00:39:56;;;;;;;4.67;3.90;;;;;;;12.98;100.00;101162.47;1724172;81;21551;-89
2022/07/18 00:42:23;;;;;;;3.62;3.33;;;;;;;12.97;100.00;101164.72;1724500;81;21045;-90
2022/07/18 00:44:55;;;;;;;3.55;3.25;;;;;;;12.96;100.00;101163.90;1723877;82;21221;-90
2022/07/18 00:47:23;;;;;;;5.10;3.40;;;;;;;12.95;100.00;101158.31;1724323;81;21555;-89
2022/07/18 00:49:50;;;;;;;6.17;3.45;;;;;;;12.94;100.00;101161.87;1723931;81;21063;-90
2022/07/18 00:52:17;;;;;;;3.58;3.27;;;;;;;12.93;100.00;101164.97;1724459;81;21062;-89
2022/07/18 00:54:45;;;;;;;3.60;3.00;;;;;;;12.90;100.00;101165.19;1735106;81;21040;-89
2022/07/18 00:57:14;;;;;;;4.00;3.37;;;;;;;12.88;100.00;101168.39;1737876;81;21069;-89
2022/07/18 01:02:27;;;;;;;4.05;3.75;;;;;;;12.79;100.00;101176.92;1738035;81;21052;-89
2022/07/18 01:04:55;;;;;;;3.60;3.30;;;;;;;12.76;100.00;101179.30;1737370;81;21049;-89
2022/07/18 01:07:22;;;;;;;4.17;3.42;;;;;;;12.75;100.00;101178.12;1737999;82;21064;-89
2022/07/18 01:09:50;;;;;;;4.37;4.03;;;;;;;12.75;100.00;101175.50;1738255;81;21017;-89
2022/07/18 01:12:18;;;;;;;5.80;3.90;;;;;;;12.74;100.00;101179.87;1738318;81;21491;-88
2022/07/18 01:14:47;;;;;;;6.08;4.17;;;;;;;12.73;100.00;101176.09;1738158;81;21041;-90
2022/07/18 01:17:17;;;;;;;4.03;3.58;;;;;;;12.74;100.00;101181.19;1738314;81;21072;-89
2022/07/18 01:19:44;;;;;;;4.12;3.45;;;;;;;12.76;100.00;101179.79;1738394;81;21025;-90
2022/07/18 01:22:15;;;;;;;4.00;3.40;;;;;;;12.77;100.00;101184.07;1738163;81;20993;-89
2022/07/18 01:24:43;;;;;;;;;;;;;;;12.76;100.00;101191.06;1740509;81;21017;-89
2022/07/18 01:27:17;;;;;;;4.28;3.77;;;;;;;12.72;100.00;101190.95;1758649;81;20186;-89
2022/07/18 01:29:47;;;;;;;4.20;3.80;;;;;;;12.69;100.00;101192.47;1736811;82;21147;-89
2022/07/18 01:32:17;;;;;;;6.25;3.85;;;;;;;12.63;100.00;101196.37;1738508;81;21069;-89
2022/07/18 01:34:47;;;;;;;4.20;3.80;;;;;;;12.58;100.00;101197.66;1758753;81;21168;-89
2022/07/18 01:37:16;;;;;;;3.70;3.40;;;;;;;12.55;100.00;101197.91;1758274;81;21017;-88
2022/07/18 01:39:45;;;;;;;4.37;3.72;;;;;;;12.51;100.00;101198.60;1758772;81;21020;-89
2022/07/18 01:42:13;;;;;;;4.55;3.67;;;;;;;12.48;100.00;101193.59;1758513;81;21096;-90
2022/07/18 01:44:42;;;;;;;4.03;3.27;;;;;;;12.45;100.00;101202.98;1758288;81;21597;-90
2022/07/18 01:47:10;;;;;;;3.90;3.37;;;;;;;12.42;100.00;101196.66;1758792;81;21129;-89
2022/07/18 01:49:39;;;;;;;3.90;3.58;;;;;;;12.41;100.00;101198.91;1758098;81;20980;-89
2022/07/18 01:52:07;;;;;;;4.92;3.52;;;;;;;12.40;100.00;101200.70;1758499;81;21540;-89
2022/07/18 01:54:37;;;;;;;9.78;4.17;;;;;;;12.39;100.00;101202.95;1758600;81;21053;-89
2022/07/18 01:57:06;;;;;;;6.72;3.92;;;;;;;12.39;100.00;101209.48;1758320;81;21032;-89
2022/07/18 01:59:34;;;;;;;7.08;4.05;;;;;;;12.37;100.00;101204.84;1758793;81;22194;-89
2022/07/18 02:02:04;;;;;;;3.77;3.47;;;;;;;12.34;100.00;101202.92;1758013;81;21095;-90
2022/07/18 02:07:20;;;;;;;4.25;3.33;;;;;;;12.25;100.00;101205.27;1758201;81;21090;-89
2022/07/18 02:09:47;;;;;;;4.03;3.62;;;;;;;12.24;100.00;101206.20;1758657;81;21093;-89
2022/07/18 02:12:14;;;;;;;4.20;3.42;;;;;;;12.23;100.00;101205.84;1758483;81;21133;-90
2022/07/18 02:14:42;;;;;;;4.22;3.42;;;;;;;12.20;100.00;101200.86;1758239;81;21037;-88
2022/07/18 02:17:10;;;;;;;5.92;3.27;;;;;;;12.22;100.00;101200.25;1758044;81;21092;-89
2022/07/18 02:19:37;;;;;;;4.87;3.10;;;;;;;12.23;100.00;101203.72;1758654;81;21062;-89
2022/07/18 02:22:04;;;;;;;3.27;2.95;;;;;;;12.24;100.00;101202.28;1757838;81;21128;-89
2022/07/18 02:24:32;;;;;;;3.20;2.92;;;;;;;12.26;100.00;101203.02;1758757;81;21142;-90
2022/07/18 02:27:00;;;;;;;4.65;3.27;;;;;;;12.28;100.00;101202.44;1757977;81;21021;-90
2022/07/18 02:29:27;;;;;;;3.25;2.95;;;;;;;12.31;100.00;101203.98;1758681;81;21656;-89
2022/07/18 02:31:54;;;;;;;3.45;3.15;;;;;;;12.33;100.00;101208.63;1758601;81;21068;-89
2022/07/18 02:34:21;;;;;;;3.25;2.90;;;;;;;12.34;100.00;101203.74;1758852;81;21060;-89
2022/07/18 02:36:50;;;;;;;4.62;3.15;;;;;;;12.37;100.00;101209.24;1758162;81;21112;-90
2022/07/18 02:39:19;;;;;;;5.85;3.20;;;;;;;12.35;100.00;101211.94;1758934;81;21085;-89
2022/07/18 02:41:47;;;;;;;3.60;3.30;;;;;;;12.34;100.00;101207.66;1758397;81;21037;-89
2022/07/18 02:44:14;;;;;;;3.90;3.10;;;;;;;12.35;100.00;101216.34;1758659;81;21029;-89
2022/07/18 02:46:42;;;;;;;3.12;2.83;;;;;;;12.34;100.00;101212.06;1758010;81;21044;-89
2022/07/18 02:49:09;;;;;;;3.92;3.33;;;;;;;12.35;100.00;101214.55;1758151;81;21499;-89
2022/07/18 02:51:37;;;;;;;3.02;2.83;;;;;;;12.38;100.00;101216.13;1758503;81;21048;-88
2022/07/18 02:54:04;;;;;;;4.08;3.02;;;;;;;12.41;100.00;101218.05;1758556;81;21515;-89
2022/07/18 02:56:32;;;;;;;3.20;2.62;;;;;;;12.46;100.00;101218.98;1758568;81;21045;-89
2022/07/18 02:58:59;;;;;;;4.60;2.95;;;;;;;12.50;100.00;101211.78;1758495;81;21562;-89
2022/07/18 03:01:26;;;;;;;3.65;3.08;;;;;;;12.53;100.00;101220.23;1758340;81;21130;-89
2022/07/18 03:03:53;;;;;;;3.95;2.80;;;;;;;12.55;100.00;101222.23;1758469;81;21495;-89
2022/07/18 03:06:21;;;;;;;3.75;3.00;;;;;;;12.57;100.00;101220.34;1758296;81;21080;-89
2022/07/18 03:08:48;;;;;;;3.33;3.02;;;;;;;12.56;100.00;101219.98;1758449;81;21570;-89
2022/07/18 03:11:15;;;;;;;3.22;2.92;;;;;;;12.54;100.00;101212.72;1758551;81;21092;-90
2022/07/18 03:13:43;;;;;;;3.65;2.90;;;;;;;12.54;100.00;101214.52;1758342;81;21123;-89
2022/07/18 03:16:10;;;;;;;3.33;2.80;;;;;;;12.56;100.00;101217.37;1758225;81;21315;-89
2022/07/18 03:18:38;;;;;;;2.70;2.50;;;;;;;12.59;100.00;101216.30;1758442;81;21040;-89
2022/07/18 03:21:05;;;;;;;3.52;2.70;;;;;;;12.64;100.00;101216.81;1758335;81;21017;-90
2022/07/18 03:23:32;;;;;;;2.50;2.30;;;;;;;12.69;100.00;101221.70;1758558;81;21025;-90
2022/07/18 03:25:59;;;;;;;2.70;2.50;;;;;;;12.71;100.00;101219.33;1758262;81;21128;-90
2022/07/18 03:28:26;;;;;;;2.83;2.62;;;;;;;12.75;100.00;101219.93;1758544;81;21025;-90
2022/07/18 03:30:54;;;;;;;3.55;2.85;;;;;;;12.77;100.00;101224.09;1758125;81;21104;-90
2022/07/18 03:33:21;;;;;;;3.77;2.80;;;;;;;12.83;100.00;101228.48;1757670;81;21048;-90
2022/07/18 03:35:48;;;;;;;3.10;2.77;;;;;;;12.88;100.00;101223.77;1758563;81;21405;-89
2022/07/18 03:38:15;;;;;;;3.22;2.60;;;;;;;12.94;100.00;101225.42;1758299;81;21142;-89
2022/07/18 03:40:43;;;;;;;6.85;2.80;;;;;;;13.02;100.00;101226.16;1757928;81;37442;-90
2022/07/18 03:43:12;;;;;;;3.17;2.85;;;;;;;13.12;100.00;101222.85;1758659;81;21002;-89
2022/07/18 03:45:39;;;;;;;3.62;2.83;;;;;;;13.20;100.00;101216.56;1758243;81;22314;-89
2022/07/18 03:48:06;;;;;;;3.50;3.20;;;;;;;13.28;100.00;101214.65;1765190;78;21085;-89
2022/07/18 03:50:33;;;;;;;4.90;2.98;;;;;;;13.34;100.00;101208.97;1758255;81;21206;-89
2022/07/18 03:53:01;;;;;;;5.08;3.00;;;;;;;13.43;100.00;101210.88;1758261;81;21025;-89
2022/07/18 03:55:28;;;;;;;3.62;3.00;;;;;;;13.53;100.00;101214.45;1758197;81;21045;-90
2022/07/18 03:57:55;;;;;;;5.30;2.92;;;;;;;13.64;100.00;101210.16;1758032;81;21582;-89
2022/07/18 04:00:22;;;;;;;3.58;2.70;;;;;;;13.78;100.00;101213.00;1758480;81;21077;-89
2022/07/18 04:02:49;;;;;;;3.72;2.83;;;;;;;13.90;100.00;101217.73;1758498;81;21867;-90
2022/07/18 04:05:17;;;;;;;3.98;2.80;;;;;;;14.01;100.00;101221.62;1758447;81;21061;-90
2022/07/18 04:07:45;;;;;;;2.98;2.77;;;;;;;14.09;100.00;101226.26;1758123;81;21040;-90
2022/07/18 04:10:12;;;;;;;3.08;2.87;;;;;;;14.15;100.00;101227.06;1758256;81;21026;-89
2022/07/18 04:12:54;;;;;;;4.60;3.10;;;;;;;14.22;100.00;101225.61;1758435;81;21042;-90
2022/07/18 04:15:25;;;;;;;3.67;3.20;;;;;;;14.25;100.00;101233.23;1758531;81;21065;-89
2022/07/18 04:17:53;;;;;;;3.40;2.92;;;;;;;14.28;100.00;101230.84;1758222;81;21017;-91
2022/07/18 04:20:21;;;;;;;3.52;2.95;;;;;;;14.30;100.00;101235.48;1758712;81;21006;-89
2022/07/18 04:22:53;;;;;;;3.67;3.35;;;;;;;14.36;100.00;101220.56;1758456;81;21084;-91
2022/07/18 04:25:24;;;;;;;3.67;3.35;;;;;;;14.44;100.00;101224.70;1758585;81;21686;-90
2022/07/18 04:27:51;;;;;;;3.30;3.10;;;;;;;14.53;100.00;101228.34;1758257;81;21803;-90
2022/07/18 04:30:23;;;;;;;3.58;3.27;;;;;;;14.60;100.00;101222.12;1758457;81;20994;-89
2022/07/18 04:32:51;;;;;;;3.47;3.00;;;;;;;14.62;100.00;101226.28;1755157;81;21072;-89
2022/07/18 04:35:18;;;;;;;3.33;2.92;;;;;;;14.72;100.00;101228.99;1758333;81;21543;-91
2022/07/18 04:37:45;;;;;;;6.40;3.80;;;;;;;14.85;100.00;101225.36;1758475;81;21041;-91
2022/07/18 04:40:15;;;;;;;3.37;3.05;;;;;;;14.93;100.00;101227.69;1758297;81;21771;-90
2022/07/18 04:42:43;;;;;;;3.70;3.40;;;;;;;14.98;100.00;101219.43;1767038;80;21595;-92
2022/07/18 04:45:10;;;;;;;3.30;3.10;;;;;;;15.07;100.00;101230.46;1780559;79;20993;-90
2022/07/18 04:47:38;;;;;;;3.47;3.27;;;;;;;15.14;100.00;101227.66;1764203;79;21571;-90
2022/07/18 04:50:07;;;;;;;3.67;3.10;;;;;;;15.21;100.00;101225.83;1773226;80;21027;-90
2022/07/18 04:52:40;;;;;;;4.80;3.40;;;;;;;15.27;100.00;101223.98;1733999;82;21859;-89
2022/07/18 04:55:10;;;;;;;3.62;3.33;;;;;;;15.37;100.00;101221.42;1733945;81;21009;-89
2022/07/18 04:57:39;;;;;;;3.62;3.27;;;;;;;15.48;100.00;101229.18;1751690;79;21019;-91
2022/07/18 05:00:12;;;;;;;5.00;3.20;;;;;;;15.57;100.00;101229.70;1734735;82;21567;-89
2022/07/18 05:02:41;;;;;;;3.33;3.12;;;;;;;15.66;100.00;101227.23;1734611;81;21029;-91
2022/07/18 05:05:10;;;;;;;3.70;3.40;;;;;;;15.78;100.00;101234.88;1734153;82;21698;-92
2022/07/18 05:07:40;;;;;;;4.03;3.50;;;;;;;15.93;100.00;101231.89;1734158;82;20971;-92
2022/07/18 05:10:11;;;;;;;3.90;3.60;;;;;;;16.08;100.00;101228.41;1734799;82;21069;-91
2022/07/18 05:12:41;;;;;;;4.33;3.90;;;;;;;16.23;100.00;101230.13;1734862;82;20998;-94
2022/07/18 05:15:12;;;;;;;4.12;3.83;;;;;;;16.34;100.00;101225.25;1734462;82;21096;-92
2022/07/18 05:17:40;;;;;;;6.20;4.22;;;;;;;16.42;100.00;101228.48;1736352;79;21169;-92
2022/07/18 05:20:11;;;;;;;4.17;3.77;;;;;;;16.49;100.00;101231.74;1774716;80;21046;-92
2022/07/18 05:22:40;;;;;;;3.65;3.35;;;;;;;16.60;100.00;101229.91;1772749;79;22011;-94
2022/07/18 05:25:09;;;;;;;3.33;3.10;;;;;;;16.72;100.00;101229.63;1776278;80;21503;-93
2022/07/18 05:27:36;;;;;;;3.10;2.75;;;;;;;16.86;100.00;101226.23;1770502;80;21581;-90
2022/07/18 05:30:10;;;;;;;3.80;3.30;;;;;;;17.01;100.00;101220.05;1775997;79;21095;-91
2022/07/18 05:32:39;;;;;;;3.35;3.05;;;;;;;17.15;100.00;101225.34;1784719;80;20967;-92
2022/07/18 05:35:09;;;;;;;3.30;3.00;;;;;;;17.34;100.00;101223.97;1786236;80;21766;-92
2022/07/18 05:37:37;;;;;;;3.52;3.05;;;;;;;17.46;100.00;101220.66;1786558;80;21127;-92
2022/07/18 05:40:09;;;;;;;3.75;2.42;;;;;;;17.59;100.00;101222.11;1786009;79;21335;-93
2022/07/18 05:42:36;;;;;;;3.72;2.72;;;;;;;17.71;100.00;101214.83;1782603;80;21826;-93
2022/07/18 05:45:05;;;;;;;2.75;2.55;;;;;;;17.82;100.00;101218.09;1786421;80;21033;-91
2022/07/18 05:47:32;;;;;;;2.77;2.50;;;;;;;17.90;100.00;101209.45;1786234;79;21029;-90
2022/07/18 05:49:59;;;;;;;2.72;2.25;;;;;;;18.05;100.00;101214.23;1786496;80;21060;-90
2022/07/18 05:52:26;;;;;;;3.27;2.47;;;;;;;18.18;100.00;101210.73;1786387;80;21025;-91
2022/07/18 05:54:54;;;;;;;6.35;2.90;;;;;;;18.33;100.00;101211.50;1768127;79;21763;-89
2022/07/18 05:57:21;;;;;;;2.62;2.10;;;;;;;18.44;100.00;101206.00;1782658;78;21121;-90
2022/07/18 05:59:48;;;;;;;2.95;2.55;;;;;;;18.58;100.00;101208.09;1782642;78;21019;-91
2022/07/18 06:02:15;;;;;;;2.90;2.20;;;;;;;18.71;100.00;101207.69;1769175;79;21512;-93
2022/07/18 06:04:42;;;;;;;3.35;2.30;;;;;;;18.82;100.00;101215.83;1764682;79;21310;-92
2022/07/18 06:07:10;;;;;;;2.75;2.50;;;;;;;18.89;100.00;101202.86;1766637;79;21104;-93
2022/07/18 06:09:37;;;;;;;2.20;2.00;;;;;;;18.99;100.00;101214.14;1772774;79;21123;-91
2022/07/18 06:12:07;;;;;;;2.70;2.00;;;;;;;19.14;100.00;101206.98;1771521;79;21049;-92
2022/07/18 06:14:34;;;;;;;2.30;2.10;;;;;;;19.28;100.00;101198.94;1765362;79;21088;-94
2022/07/18 06:17:01;;;;;;;2.30;2.10;;;;;;;19.36;100.00;101198.97;1764934;80;21022;-92
2022/07/18 06:19:29;;;;;;;2.85;2.47;;;;;;;19.41;100.00;101203.78;1766477;79;21105;-90
2022/07/18 06:21:56;;;;;;;2.60;2.40;;;;;;;19.49;100.00;101198.05;1779187;79;21021;-95
2022/07/18 06:24:23;;;;;;;5.85;2.60;;;;;;;19.60;100.00;101194.28;1779800;79;21017;-91
2022/07/18 06:26:50;;;;;;;2.30;2.10;;;;;;;19.77;100.00;101193.81;1779406;79;21076;-89
2022/07/18 06:29:18;;;;;;;2.40;2.10;;;;;;;19.87;100.00;101192.38;1779548;79;21104;-91
2022/07/18 06:31:45;;;;;;;2.15;1.95;;;;;;;19.90;100.00;101184.12;1779663;79;21097;-91
2022/07/18 06:34:12;;;;;;;2.12;1.80;;;;;;;19.94;100.00;101188.59;1778995;79;21127;-93
2022/07/18 06:36:39;;;;;;;3.05;1.90;;;;;;;19.92;100.00;101193.20;1779803;79;20985;-91
2022/07/18 06:39:10;;;;;;;2.85;1.98;;;;;;;19.88;100.00;101202.47;1779392;80;21013;-91
2022/07/18 06:41:37;;;;;;;4.92;2.15;;;;;;;19.83;100.00;101198.95;1725711;82;21139;-90
2022/07/18 06:44:06;;;;;;;5.28;1.57;;;;;;;19.85;100.00;101195.19;1725081;82;21171;-90
2022/07/18 06:46:36;;;;;;;3.00;1.70;;;;;;;19.97;100.00;101202.81;1737044;79;21052;-91
2022/07/18 06:49:05;;;;;;;2.37;1.92;;;;;;;20.03;100.00;101203.48;1770307;79;21033;-91
2022/07/18 06:51:32;;;;;;;2.10;1.82;;;;;;;20.07;100.00;101201.33;1767928;79;21034;-90
2022/07/18 06:54:01;;;;;;;1.90;1.80;;;;;;;20.17;100.00;101205.98;1770839;79;21552;-89
2022/07/18 06:56:28;;;;;;;2.80;1.70;;;;;;;20.32;100.00;101206.97;1764403;79;21179;-93
2022/07/18 06:58:55;;;;;;;2.70;1.62;;;;;;;20.46;100.00;101203.32;1760148;81;21029;-92
2022/07/18 07:01:22;;;;;;;1.98;1.80;;;;;;;20.58;100.00;101200.68;1753681;80;21046;-91
2022/07/18 07:03:49;;;;;;;1.90;1.70;;;;;;;20.67;100.00;101200.67;1764664;80;21030;-90
2022/07/18 07:06:17;;;;;;;2.95;1.90;;;;;;;20.70;100.00;101201.16;1767236;79;21695;-89
2022/07/18 07:08:47;;;;;;;1.85;1.75;;;;;;;20.80;100.00;101201.81;1747076;81;21161;-90
2022/07/18 07:11:14;;;;;;;1.70;1.60;;;;;;;20.86;100.00;101210.09;1746328;80;21055;-89
2022/07/18 07:13:41;;;;;;;1.57;1.47;;;;;;;20.97;100.00;101211.03;1737039;80;21719;-92
2022/07/18 07:16:08;;;;;;;3.52;1.70;;;;;;;20.98;97.22;101219.82;1720991;83;21192;-91
2022/07/18 07:18:35;;;;;;;1.80;1.60;;;;;;;20.78;95.84;101211.77;1733117;81;21077;-91
2022/07/18 07:21:03;;;;;;;4.65;2.00;;;;;;;20.65;100.00;101216.21;1730868;81;21140;-91
2022/07/18 07:23:30;;;;;;;5.17;2.10;;;;;;;20.71;100.00;101211.23;1728385;80;20983;-92
2022/07/18 07:25:57;;;;;;;3.37;1.98;;;;;;;20.79;100.00;101217.35;1758338;81;21019;-92
2022/07/18 07:28:24;;;;;;;3.08;2.35;;;;;;;20.89;100.00;101222.97;1758969;81;21112;-88
2022/07/18 07:30:51;;;;;;;3.42;2.45;;;;;;;20.96;100.00;101219.48;1760731;80;21039;-88
2022/07/18 07:33:19;;;;;;;2.08;1.98;;;;;;;21.00;100.00;101218.65;1758929;80;21121;-89
2022/07/18 07:35:46;;;;;;;2.87;1.77;;;;;;;20.98;100.00;101223.80;1760986;79;21064;-91
2022/07/18 07:38:18;;;;;;;1.80;1.70;;;;;;;20.69;93.52;101217.18;1750586;80;21909;-91
2022/07/18 07:40:42;;;;;;;2.17;1.80;;;;;;;20.42;99.76;101231.92;1746629;80;22086;-91
2022/07/18 07:43:12;;;;;;;2.17;1.40;;;;;;;20.44;100.00;101225.98;1751816;79;21039;-88
2022/07/18 07:45:40;;;;;;;1.82;1.60;;;;;;;20.59;100.00;101231.91;1773341;80;21170;-89
2022/07/18 07:48:07;;;;;;;1.87;1.77;;;;;;;20.85;100.00;101224.31;1754041;79;21034;-90
2022/07/18 07:50:36;;;;;;;3.95;1.70;;;;;;;21.06;100.00;101225.91;1757703;80;21083;-90
2022/07/18 07:53:03;;;;;;;2.42;2.00;;;;;;;21.06;95.27;101230.39;1746985;81;21042;-88
2022/07/18 07:55:31;;;;;;;4.17;1.47;;;;;;;20.83;85.67;101227.61;1768713;80;20995;-90
2022/07/18 07:57:58;;;;;;;1.55;1.42;;;;;;;20.69;82.65;101235.22;1788005;79;21138;-92
2022/07/18 08:00:27;;;;;;;3.27;1.60;;;;;;;20.77;90.40;101225.14;1769187;79;21586;-90
2022/07/18 08:02:58;;;;;;;1.25;1.20;;;;;;;20.99;87.68;101238.17;1770943;80;21013;-90
2022/07/18 08:05:26;;;;;;;2.10;1.35;;;;;;;21.14;72.68;101234.81;1776513;79;21035;-90
2022/07/18 08:07:53;;;;;;;6.92;1.72;;;;;;;21.21;80.14;101232.66;1774896;79;21060;-89
2022/07/18 08:10:21;;;;;;;3.15;1.52;;;;;;;21.31;91.29;101232.45;1766292;79;21122;-89
2022/07/18 08:12:48;;;;;;;2.02;1.45;;;;;;;21.45;94.11;101233.56;1776144;79;21127;-89
2022/07/18 08:15:15;;;;;;;1.50;1.00;;;;;;;21.52;83.67;101236.32;1767113;79;21068;-90
2022/07/18 08:17:43;;;;;;;1.32;1.05;;;;;;;21.57;60.92;101230.02;1762690;80;21586;-92
2022/07/18 08:20:11;;;;;;;0.95;0.95;;;;;;;21.61;62.34;101237.16;1775659;79;21067;-89
2022/07/18 08:23:02;;;;;;;4.37;1.40;;;;;;;21.71;70.13;101224.53;1775437;79;21147;-91
2022/07/18 08:25:34;;;;;;;1.20;1.05;;;;;;;21.86;66.86;101228.56;1767078;80;21029;-89
2022/07/18 08:28:03;;;;;;;1.60;1.37;;;;;;;22.00;73.24;101233.11;1774785;78;21002;-89
2022/07/18 08:30:31;;;;;;;1.40;1.30;;;;;;;22.15;67.39;101224.41;1768959;79;21059;-89
2022/07/18 08:33:00;;;;;;;1.22;1.12;;;;;;;22.21;63.64;101229.00;1769021;79;21137;-88
2022/07/18 08:35:29;;;;;;;2.92;1.27;;;;;;;22.22;65.51;101230.66;1768752;80;21241;-88
2022/07/18 08:37:56;;;;;;;1.72;1.12;;;;;;;22.22;67.40;101216.87;1778929;79;21091;-89
2022/07/18 08:40:23;;;;;;;1.20;1.10;;;;;;;22.29;70.66;101230.27;1751052;80;21548;-87
2022/07/18 08:42:52;;;;;;;1.40;1.30;;;;;;;22.20;70.08;101226.83;1771877;80;21032;-89
2022/07/18 08:45:24;;;;;;;4.72;1.72;;;;;;;21.97;67.50;101229.98;1762554;79;21052;-87
2022/07/18 08:47:52;;;;;;;1.50;1.40;;;;;;;21.80;69.62;101225.30;1787399;78;21605;-89
2022/07/18 08:50:20;;;;;;;1.10;1.10;;;;;;;21.58;67.01;101243.63;1729520;82;21041;-88
2022/07/18 08:52:48;;;;;;;1.30;1.30;;;;;;;21.43;75.12;101230.25;1767925;80;21546;-87
2022/07/18 08:55:16;;;;;;;3.22;1.42;;;;;;;21.64;69.75;101228.84;1761610;79;21020;-87
2022/07/18 08:57:43;;;;;;;1.02;0.95;;;;;;;21.92;64.25;101227.86;1754455;80;21023;-89
2022/07/18 09:00:12;;;;;;;1.32;1.22;;;;;;;22.15;58.75;101218.59;1750169;80;21126;-89
2022/07/18 09:02:39;;;;;;;1.82;1.20;;;;;;;22.32;59.74;101230.40;1730969;81;21627;-86
2022/07/18 09:05:18;;;;;;;1.92;1.40;;;;;;;22.46;62.79;101230.97;1731473;82;21050;-89
2022/07/18 09:07:46;;;;;;;3.60;3.05;;;;;;;22.62;62.77;101232.67;1750350;81;21522;-89
2022/07/18 09:10:13;;;;;;;3.98;2.15;;;;;;;22.72;62.20;101234.21;1749288;81;21075;-90
2022/07/18 09:12:57;;;;;;;1.40;1.30;;;;;;;22.69;61.81;101220.80;1753039;81;21135;-88
2022/07/18 09:15:24;;;;;;;1.55;1.40;;;;;;;22.79;55.84;101225.88;1741028;81;21008;-89
2022/07/18 09:17:56;;;;;;;2.05;1.15;;;;;;;22.86;58.12;101224.14;1723906;81;21069;-89
2022/07/18 09:20:24;;;;;;;;;;;;;;;22.97;58.83;101222.34;1760666;80;21117;-88
2022/07/18 09:22:51;;;;;;;1.60;1.50;;;;;;;23.05;57.75;101228.56;1740041;80;20199;-89
2022/07/18 09:25:21;;;;;;;1.42;1.12;;;;;;;23.05;55.11;101221.44;1764789;80;21114;-89
2022/07/18 09:27:52;;;;;;;2.30;1.40;;;;;;;23.09;58.28;101223.22;1762481;80;21106;-88
2022/07/18 09:30:35;;;;;;;1.52;1.42;;;;;;;23.20;57.65;101217.46;1756653;80;21569;-88
2022/07/18 09:33:10;;;;;;;2.05;1.37;;;;;;;23.14;58.95;101220.83;1730009;81;21277;-91
2022/07/18 09:35:52;;;;;;;1.42;1.25;;;;;;;22.47;55.18;101239.77;1736021;80;21067;-89
2022/07/18 09:38:20;;;;;;;;;;;;;;;22.07;59.40;101243.84;1767667;81;21862;-88
2022/07/18 09:40:53;;;;;;;1.52;1.42;;;;;;;22.11;59.84;101231.05;1767999;81;20216;-89
2022/07/18 09:43:24;;;;;;;3.35;1.55;;;;;;;22.37;61.12;101226.22;1768981;80;21479;-88
2022/07/18 09:45:54;;;;;;;2.40;1.40;;;;;;;22.57;62.66;101227.57;1763541;79;21089;-89
2022/07/18 09:48:25;;;;;;;3.45;1.20;;;;;;;22.58;61.70;101239.33;1763561;79;21080;-88
2022/07/18 09:50:59;;;;;;;2.05;1.30;;;;;;;22.68;58.99;101236.41;1736168;81;21075;-89
2022/07/18 09:53:38;;;;;;;1.57;1.10;;;;;;;22.84;55.01;101232.78;1755788;80;21662;-89
2022/07/18 09:56:14;;;;;;;1.35;1.17;;;;;;;23.03;55.13;101230.60;1756346;79;21066;-91
2022/07/18 09:58:54;;;;;;;3.10;1.30;;;;;;;23.15;50.79;101247.20;1750583;81;21040;-86
2022/07/18 10:01:22;;;;;;;3.02;1.80;;;;;;;23.19;53.74;101237.58;1770821;80;21024;-89
2022/07/18 10:03:50;;;;;;;3.00;2.00;;;;;;;23.18;56.73;101240.75;1774358;79;21128;-88
2022/07/18 10:06:18;;;;;;;1.40;1.30;;;;;;;23.17;57.27;101247.03;1770926;80;21019;-89
2022/07/18 10:08:45;;;;;;;1.72;1.60;;;;;;;23.17;51.20;101247.03;1748413;80;21559;-89
2022/07/18 10:11:14;;;;;;;2.60;2.40;;;;;;;23.25;57.62;101249.63;1745095;80;21032;-91
2022/07/18 10:13:41;;;;;;;2.95;1.80;;;;;;;23.23;56.19;101239.69;1745449;81;22196;-90
2022/07/18 10:16:09;;;;;;;2.58;2.37;;;;;;;22.98;55.85;101247.89;1734747;79;22218;-91
2022/07/18 10:18:37;;;;;;;2.60;2.20;;;;;;;22.96;57.48;101239.28;1782072;79;21018;-89
2022/07/18 10:21:10;;;;;;;2.02;1.82;;;;;;;23.16;57.78;101242.20;1786328;79;21518;-89
2022/07/18 10:23:43;;;;;;;3.67;2.50;;;;;;;23.47;56.95;101236.41;1765968;79;21004;-90
2022/07/18 10:26:25;;;;;;;2.00;1.80;;;;;;;23.71;54.92;101237.08;1773714;79;21066;-89
2022/07/18 10:29:03;;;;;;;3.92;1.50;;;;;;;23.69;54.90;101239.09;1755679;80;21200;-90
2022/07/18 10:31:41;;;;;;;4.53;2.00;;;;;;;23.40;52.63;101246.13;1765683;79;21004;-87
2022/07/18 10:34:12;;;;;;;3.02;2.50;;;;;;;23.24;56.85;101245.32;1776972;78;21024;-89
2022/07/18 10:36:52;;;;;;;1.60;1.50;;;;;;;23.33;53.83;101231.94;1777372;79;21085;-91
2022/07/18 10:39:25;;;;;;;1.75;1.65;;;;;;;23.44;54.74;101239.42;1781636;79;21061;-89
2022/07/18 10:41:58;;;;;;;1.80;1.70;;;;;;;23.58;52.62;101250.55;1772809;78;21152;-90
2022/07/18 10:44:31;;;;;;;2.02;1.82;;;;;;;23.65;53.77;101235.18;1761566;79;21064;-90
2022/07/18 10:47:08;;;;;;;5.47;2.22;;;;;;;23.75;55.96;101239.70;1781128;79;21067;-87
2022/07/18 10:49:58;;;;;;;2.62;2.10;;;;;;;23.90;55.08;101236.98;1732029;81;21098;-92
2022/07/18 10:52:36;;;;;;;5.58;2.20;;;;;;;24.05;54.33;101243.61;1735900;81;21563;-89
2022/07/18 10:55:17;;;;;;;1.60;1.50;;;;;;;24.16;52.99;101255.06;1755350;81;21125;-91
2022/07/18 10:57:54;;;;;;;;;;;;;;;24.05;51.45;101243.09;1779861;78;21011;-90
2022/07/18 11:00:29;;;;;;;6.15;3.77;;;;;;;24.10;48.96;101247.36;1770413;80;20437;-88
2022/07/18 11:03:09;;;;;;;4.47;2.80;;;;;;;24.20;51.41;101245.70;1743291;80;21081;-89
2022/07/18 11:05:46;;;;;;;7.20;5.87;;;;;;;24.28;53.56;101251.38;1744924;80;21040;-90
2022/07/18 11:08:18;;;;;;;3.72;3.37;;;;;;;24.44;52.50;101245.50;1745879;80;21145;-88
2022/07/18 11:10:53;;;;;;;2.17;1.57;;;;;;;24.52;54.90;101239.52;1746769;80;21074;-90
2022/07/18 11:13:32;;;;;;;1.92;1.67;;;;;;;24.67;50.17;101241.30;1726723;81;21538;-89
2022/07/18 11:16:14;;;;;;;1.50;1.40;;;;;;;24.46;48.24;101234.14;1755457;80;21019;-89
2022/07/18 11:18:48;;;;;;;1.52;1.42;;;;;;;24.23;50.61;101247.16;1768185;80;21541;-90
2022/07/18 11:21:31;;;;;;;1.80;1.62;;;;;;;24.28;51.26;101243.92;1745623;80;21073;-91
2022/07/18 11:24:08;;;;;;;1.60;1.50;;;;;;;24.29;49.14;101245.57;1765793;79;21032;-88
2022/07/18 11:26:39;;;;;;;2.90;1.60;;;;;;;23.99;50.49;101241.72;1766053;80;21046;-91
2022/07/18 11:29:10;;;;;;;1.47;1.37;;;;;;;23.74;49.83;101238.86;1747314;80;21000;-88
2022/07/18 11:31:53;;;;;;;2.37;1.50;;;;;;;23.89;52.70;101245.48;1770766;80;21043;-88
2022/07/18 11:34:42;;;;;;;2.02;1.47;;;;;;;24.20;53.56;101240.87;1766952;80;21020;-90
2022/07/18 11:37:13;;;;;;;1.70;1.50;;;;;;;24.52;50.20;101236.86;1736960;80;21093;-87